createdAt,value
2019-04-26T00:05:47.246Z,5.15
2019-04-26T00:07:10.750Z,4.72
2019-04-26T00:08:28.480Z,7.03
2019-04-26T00:09:44.583Z,6.05
2019-04-26T00:11:25.374Z,6.77
2019-04-26T00:13:02.918Z,5.40
2019-04-26T00:14:39.215Z,7.08
2019-04-26T00:17:48.304Z,5.72
2019-04-26T00:19:04.097Z,7.72
2019-04-26T00:20:21.108Z,5.95
2019-04-26T00:21:37.198Z,7.23
2019-04-26T00:22:53.293Z,7.15
2019-04-26T00:24:09.733Z,9.67
2019-04-26T00:25:26.038Z,8.33
2019-04-26T00:26:42.003Z,8.57
2019-04-26T00:27:58.135Z,8.65
2019-04-26T00:29:15.045Z,8.00
2019-04-26T00:30:30.925Z,8.80
2019-04-26T00:31:47.037Z,7.87
2019-04-26T00:33:03.152Z,9.93
2019-04-26T00:34:19.662Z,11.65
2019-04-26T00:35:46.839Z,8.17
2019-04-26T00:36:53.602Z,8.70
2019-04-26T00:38:09.881Z,7.83
2019-04-26T00:39:54.243Z,8.63
2019-04-26T00:42:47.027Z,6.95
2019-04-26T00:45:44.095Z,9.28
2019-04-26T00:47:07.840Z,8.23
2019-04-26T01:01:03.865Z,5.42
2019-04-26T01:07:13.035Z,5.17
2019-04-26T01:12:03.071Z,5.93
2019-04-26T01:15:29.382Z,6.80
2019-04-26T01:18:55.681Z,6.93
2019-04-26T01:24:25.740Z,9.27
2019-04-26T01:31:08.439Z,8.07
2019-04-26T01:35:57.552Z,9.43
2019-04-26T01:39:10.437Z,9.27
2019-04-26T01:42:37.196Z,8.73
2019-04-26T01:44:20.196Z,8.28
2019-04-26T01:47:32.720Z,9.33
2019-04-26T01:55:34.800Z,13.10
2019-04-26T01:59:01.958Z,11.17
2019-04-26T02:00:44.313Z,12.50
2019-04-26T02:02:22.777Z,10.07
2019-04-26T02:03:40.108Z,11.37
2019-04-26T02:04:57.904Z,11.70
2019-04-26T02:06:24.973Z,11.87
2019-04-26T02:07:38.753Z,12.73
2019-04-26T02:08:55.105Z,14.93
2019-04-26T02:10:12.719Z,12.30
2019-04-26T02:11:30.846Z,13.13
2019-04-26T02:12:46.630Z,11.03
2019-04-26T02:14:02.470Z,12.45
2019-04-26T02:15:18.675Z,11.97
2019-04-26T02:16:35.045Z,14.57
2019-04-26T02:17:50.909Z,12.57
2019-04-26T02:19:07.092Z,10.90
2019-04-26T02:20:23.225Z,13.33
2019-04-26T02:21:45.504Z,12.50
2019-04-26T02:24:45.277Z,13.40
2019-04-26T02:26:20.022Z,13.37
2019-04-26T02:27:35.707Z,12.50
2019-04-26T02:28:51.680Z,12.50
2019-04-26T02:30:08.415Z,12.10
2019-04-26T02:31:25.304Z,12.10
2019-04-26T02:32:42.402Z,14.50
2019-04-26T02:33:58.612Z,11.03
2019-04-26T02:35:14.755Z,13.62
2019-04-26T02:36:47.966Z,10.78
2019-04-26T02:37:48.651Z,11.30
2019-04-26T02:39:05.579Z,12.73
2019-04-26T02:40:21.772Z,12.03
2019-04-26T02:41:37.970Z,13.70
2019-04-26T02:42:53.852Z,12.70
2019-04-26T02:44:11.297Z,13.43
2019-04-26T02:45:45.806Z,13.28
2019-04-26T02:47:21.006Z,11.47
2019-04-26T02:48:56.206Z,12.23
2019-04-26T02:50:16.502Z,12.77
2019-04-26T02:51:32.978Z,12.53
2019-04-26T02:52:49.980Z,11.70
2019-04-26T02:54:06.349Z,12.50
2019-04-26T02:55:21.867Z,13.77
2019-04-26T02:56:39.851Z,13.65
2019-04-26T02:57:55.599Z,10.93
2019-04-26T02:59:14.107Z,10.27
2019-04-26T03:00:31.596Z,12.45
2019-04-26T03:01:47.666Z,11.97
2019-04-26T03:03:03.552Z,10.72
2019-04-26T03:04:19.470Z,10.97
2019-04-26T03:05:36.107Z,10.00
2019-04-26T03:07:02.941Z,12.87
2019-04-26T03:08:11.495Z,13.62
2019-04-26T03:09:27.530Z,9.88
2019-04-26T03:10:43.774Z,12.78
2019-04-26T03:11:59.720Z,11.30
2019-04-26T03:15:14.118Z,10.72
2019-04-26T03:18:32.810Z,11.10
2019-04-26T03:19:49.421Z,11.00
2019-04-26T03:21:05.768Z,11.70
2019-04-26T03:22:21.751Z,11.25
2019-04-26T03:23:55.575Z,11.68
2019-04-26T03:24:56.216Z,14.70
2019-04-26T03:26:12.746Z,11.83
2019-04-26T03:27:28.523Z,11.78
2019-04-26T03:28:44.585Z,11.65
2019-04-26T03:30:18.223Z,12.25
2019-04-26T03:31:18.575Z,10.23
2019-04-26T03:32:40.608Z,13.60
2019-04-26T03:33:54.944Z,12.20
2019-04-26T03:35:36.961Z,13.53
2019-04-26T03:37:36.555Z,12.40
2019-04-26T03:39:40.309Z,13.90
2019-04-26T03:46:59.906Z,13.25
2019-04-26T03:52:29.131Z,13.30
2019-04-26T03:56:07.278Z,11.63
2019-04-26T04:00:00.953Z,11.97
2019-04-26T04:03:19.575Z,11.85
2019-04-26T04:05:03.384Z,11.40
2019-04-26T04:08:49.229Z,11.15
2019-04-26T04:10:04.800Z,10.33
2019-04-26T04:11:21.197Z,10.48
2019-04-26T04:12:38.359Z,10.47
2019-04-26T04:13:55.159Z,9.45
2019-04-26T04:15:11.248Z,8.88
2019-04-26T04:16:27.400Z,7.85
2019-04-26T04:17:50.213Z,9.80
2019-04-26T04:19:07.170Z,10.10
2019-04-26T04:22:06.658Z,6.53
2019-04-26T04:23:24.150Z,7.70
2019-04-26T04:24:41.635Z,7.13
2019-04-26T04:25:58.540Z,7.87
2019-04-26T04:27:15.697Z,7.80
2019-04-26T04:29:03.934Z,7.12
2019-04-26T04:40:01.804Z,8.53
2019-04-26T04:51:37.378Z,7.93
2019-04-26T04:53:34.544Z,7.62
2019-04-26T04:59:14.770Z,7.80
2019-04-26T05:05:30.097Z,7.65
2019-04-26T05:07:31.395Z,7.67
2019-04-26T05:09:14.454Z,5.80
2019-04-26T05:14:41.485Z,6.87
2019-04-26T05:17:49.585Z,5.97
2019-04-26T05:19:24.187Z,6.15
2019-04-26T05:20:40.225Z,6.65
2019-04-26T05:21:55.827Z,9.85
2019-04-26T05:23:15.474Z,7.60
2019-04-26T05:28:49.584Z,6.85
2019-04-26T05:30:52.382Z,8.75
2019-04-26T05:32:34.994Z,7.53
2019-04-26T05:36:41.298Z,6.72
2019-04-26T05:44:16.354Z,6.80
2019-04-26T05:47:39.217Z,6.42
2019-04-26T05:49:00.376Z,7.87
2019-04-26T05:50:21.193Z,7.55
2019-04-26T05:51:38.776Z,8.35
2019-04-26T05:52:57.233Z,7.17
2019-04-26T05:54:31.919Z,8.43
2019-04-26T05:57:31.953Z,7.03
2019-04-26T05:58:47.777Z,8.33
2019-04-26T06:02:13.278Z,8.48
2019-04-26T06:06:37.254Z,8.15
2019-04-26T06:07:59.141Z,8.98
2019-04-26T06:09:37.019Z,9.00
2019-04-26T06:12:42.280Z,9.00
2019-04-26T06:15:55.893Z,9.47
2019-04-26T06:17:33.665Z,8.10
2019-04-26T06:20:27.168Z,7.40
2019-04-26T06:21:43.044Z,8.90
2019-04-26T06:23:00.677Z,10.27
2019-04-26T06:24:16.494Z,8.15
2019-04-26T06:25:35.201Z,8.17
2019-04-26T06:27:09.298Z,8.65
2019-04-26T06:28:26.881Z,9.10
2019-04-26T06:29:43.191Z,8.63
2019-04-26T06:30:59.661Z,7.50
2019-04-26T06:32:15.624Z,6.12
2019-04-26T06:33:31.666Z,6.70
2019-04-26T06:34:47.577Z,8.43
2019-04-26T06:36:04.861Z,9.55
2019-04-26T06:40:48.269Z,7.30
2019-04-26T06:42:05.348Z,9.63
2019-04-26T06:43:40.364Z,9.08
2019-04-26T06:44:58.337Z,10.15
2019-04-26T06:46:33.685Z,11.30
2019-04-26T06:51:02.729Z,9.28
2019-04-26T06:52:18.575Z,9.30
2019-04-26T06:53:34.554Z,8.10
2019-04-26T06:54:50.700Z,10.35
2019-04-26T06:56:12.738Z,9.93
2019-04-26T06:59:12.496Z,8.28
2019-04-26T07:00:30.990Z,9.18
2019-04-26T07:01:47.505Z,10.43
2019-04-26T07:03:03.638Z,10.53
2019-04-26T07:04:19.564Z,10.45
2019-04-26T07:05:35.564Z,8.68
2019-04-26T07:06:51.642Z,9.20
2019-04-26T07:08:08.071Z,8.48
2019-04-26T07:09:24.589Z,8.98
2019-04-26T07:10:40.590Z,9.10
2019-04-26T07:12:03.020Z,8.00
2019-04-26T07:15:05.830Z,8.53
2019-04-26T07:16:23.140Z,8.48
2019-04-26T07:17:39.709Z,8.30
2019-04-26T07:18:55.672Z,6.67
2019-04-26T07:20:30.401Z,7.45
2019-04-26T07:21:47.937Z,8.88
2019-04-26T07:23:23.215Z,9.48
2019-04-26T07:25:01.549Z,12.25
2019-04-26T07:26:19.552Z,8.85
2019-04-26T07:27:35.585Z,8.25
2019-04-26T07:28:51.926Z,8.55
2019-04-26T07:30:08.047Z,8.15
2019-04-26T07:31:24.491Z,7.42
2019-04-26T07:32:40.511Z,10.88
2019-04-26T07:33:57.466Z,10.10
2019-04-26T07:35:15.613Z,7.80
2019-04-26T07:36:32.004Z,8.95
2019-04-26T07:37:48.136Z,9.53
2019-04-26T07:42:28.261Z,11.60
2019-04-26T07:43:45.787Z,8.90
2019-04-26T07:45:07.499Z,9.87
2019-04-26T07:46:24.808Z,10.00
2019-04-26T07:47:40.371Z,10.00
2019-04-26T07:48:56.458Z,7.92
2019-04-26T07:50:12.577Z,8.38
2019-04-26T07:51:28.834Z,9.78
2019-04-26T07:52:44.991Z,10.10
2019-04-26T07:54:02.296Z,11.30
2019-04-26T07:55:19.433Z,10.40
2019-04-26T07:56:35.164Z,10.60
2019-04-26T07:57:51.396Z,10.35
2019-04-26T07:59:08.679Z,12.20
2019-04-26T08:00:26.555Z,10.08
2019-04-26T08:02:18.005Z,9.88
2019-04-26T08:05:07.824Z,10.00
2019-04-26T08:06:23.851Z,10.75
2019-04-26T08:07:40.073Z,9.10
2019-04-26T08:08:56.072Z,8.28
2019-04-26T08:10:12.404Z,8.95
2019-04-26T08:11:28.617Z,10.30
2019-04-26T08:12:44.605Z,7.35
2019-04-26T08:14:00.610Z,8.45
2019-04-26T08:17:10.548Z,8.85
2019-04-26T08:18:45.366Z,10.68
2019-04-26T08:20:06.904Z,7.67
2019-04-26T08:21:27.521Z,11.25
2019-04-26T08:22:44.299Z,8.48
2019-04-26T08:25:43.846Z,7.92
2019-04-26T08:27:08.841Z,7.58
2019-04-26T08:28:17.949Z,7.90
2019-04-26T08:29:34.645Z,7.45
2019-04-26T08:30:52.382Z,8.78
2019-04-26T08:32:10.317Z,7.90
2019-04-26T08:33:30.830Z,10.13
2019-04-26T08:34:46.916Z,9.15
2019-04-26T08:36:02.629Z,7.75
2019-04-26T08:39:00.570Z,7.83
2019-04-26T08:40:25.533Z,7.67
2019-04-26T08:41:35.180Z,7.12
2019-04-26T08:46:27.025Z,8.68
2019-04-26T08:49:57.836Z,7.87
2019-04-26T08:51:20.747Z,8.80
2019-04-26T08:52:35.605Z,10.55
2019-04-26T08:53:51.345Z,8.48
2019-04-26T08:55:07.317Z,9.40
2019-04-26T08:56:23.186Z,10.10
2019-04-26T08:57:39.223Z,11.05
2019-04-26T08:58:55.265Z,10.45
2019-04-26T09:00:15.435Z,8.58
2019-04-26T09:03:34.606Z,9.13
2019-04-26T09:05:23.831Z,8.85
2019-04-26T09:08:18.732Z,11.25
2019-04-26T09:09:34.924Z,8.95
2019-04-26T09:10:51.225Z,8.68
2019-04-26T09:12:08.352Z,8.50
2019-04-26T09:13:25.434Z,8.90
2019-04-26T09:14:41.859Z,11.83
2019-04-26T09:15:58.315Z,9.13
2019-04-26T09:17:14.143Z,8.68
2019-04-26T09:18:42.377Z,8.55
2019-04-26T09:19:48.719Z,9.98
2019-04-26T09:21:04.747Z,8.15
2019-04-26T09:24:26.640Z,10.88
2019-04-26T09:25:58.689Z,8.78
2019-04-26T09:27:29.940Z,9.43
2019-04-26T09:30:34.038Z,7.80
2019-04-26T09:31:54.468Z,9.13
2019-04-26T09:33:12.741Z,10.58
2019-04-26T09:34:29.059Z,11.90
2019-04-26T09:35:44.956Z,10.48
2019-04-26T09:37:00.653Z,8.98
2019-04-26T09:38:16.595Z,12.47
2019-04-26T09:39:32.501Z,9.48
2019-04-26T09:40:52.458Z,11.25
2019-04-26T09:42:25.559Z,9.88
2019-04-26T09:45:43.274Z,10.75
2019-04-26T09:51:39.062Z,10.75
2019-04-26T09:52:58.179Z,11.22
2019-04-26T09:54:15.514Z,10.53
2019-04-26T09:55:35.693Z,11.88
2019-04-26T09:56:49.564Z,11.70
2019-04-26T09:58:08.498Z,10.98
2019-04-26T09:59:12.562Z,10.75
2019-04-26T10:02:20.082Z,10.55
2019-04-26T10:05:27.656Z,11.50
2019-04-26T10:06:51.133Z,9.53
2019-04-26T10:10:00.660Z,11.20
2019-04-26T10:16:48.299Z,10.75
2019-04-26T10:18:11.726Z,10.03
2019-04-26T10:22:55.576Z,9.60
2019-04-26T10:24:38.021Z,9.15
2019-04-26T10:26:01.563Z,9.53
2019-04-26T10:27:25.050Z,10.58
2019-04-26T10:35:05.348Z,8.80
2019-04-26T10:36:30.054Z,8.20
2019-04-26T10:37:54.242Z,8.78
2019-04-26T10:42:31.911Z,7.15
2019-04-26T10:43:55.378Z,8.63
2019-04-26T10:48:32.253Z,6.80
2019-04-26T10:53:21.529Z,6.45
2019-04-26T10:56:34.741Z,6.55
2019-04-26T10:59:54.014Z,6.90
2019-04-26T11:01:18.925Z,8.18
2019-04-26T11:06:07.359Z,9.98
2019-04-26T11:07:30.988Z,7.97
2019-04-26T11:08:54.464Z,9.35
2019-04-26T11:12:01.948Z,9.33
2019-04-26T11:15:29.136Z,8.90
2019-04-26T11:16:52.095Z,9.10
2019-04-26T11:18:15.509Z,9.95
2019-04-26T11:19:39.005Z,9.68
2019-04-26T11:23:04.147Z,11.03
2019-04-26T11:24:27.553Z,11.73
2019-04-26T11:29:16.040Z,13.98
2019-04-26T11:33:51.565Z,14.33
2019-04-26T11:41:22.762Z,15.43
2019-04-26T11:42:41.969Z,15.20
2019-04-26T11:43:56.805Z,15.38
2019-04-26T11:45:14.581Z,16.02
2019-04-26T11:46:31.058Z,15.40
2019-04-26T11:47:55.939Z,15.05
2019-04-26T11:49:07.206Z,14.83
2019-04-26T11:50:23.273Z,16.30
2019-04-26T11:51:39.375Z,15.68
2019-04-26T11:52:55.375Z,15.05
2019-04-26T11:54:11.792Z,15.65
2019-04-26T11:55:29.704Z,15.38
2019-04-26T11:56:46.243Z,14.60
2019-04-26T11:58:02.191Z,16.40
2019-04-26T11:59:18.148Z,15.15
2019-04-26T12:00:38.989Z,14.83
2019-04-26T12:01:55.224Z,15.80
2019-04-26T12:03:11.281Z,15.95
2019-04-26T12:07:46.879Z,16.12
2019-04-26T12:10:46.932Z,17.02
2019-04-26T12:12:04.839Z,17.00
2019-04-26T12:13:21.405Z,18.07
2019-04-26T12:14:38.862Z,17.98
2019-04-26T12:15:54.793Z,18.10
2019-04-26T12:17:10.858Z,18.75
2019-04-26T12:18:27.126Z,17.70
2019-04-26T12:19:43.185Z,18.98
2019-04-26T12:21:01.095Z,17.77
2019-04-26T12:22:17.615Z,19.15
2019-04-26T12:23:33.836Z,17.17
2019-04-26T12:24:50.227Z,16.97
2019-04-26T12:26:06.419Z,17.98
2019-04-26T12:27:22.329Z,18.10
2019-04-26T12:28:41.362Z,16.20
2019-04-26T12:29:57.227Z,16.48
2019-04-26T12:31:15.104Z,15.43
2019-04-26T12:32:31.085Z,13.58
2019-04-26T12:33:47.323Z,15.25
2019-04-26T12:35:03.694Z,12.53
2019-04-26T12:36:19.617Z,11.83
2019-04-26T12:37:35.631Z,13.40
2019-04-26T12:38:51.589Z,11.45
2019-04-26T12:40:11.231Z,10.18
2019-04-26T12:41:39.896Z,10.35
2019-04-26T12:42:47.350Z,10.75
2019-04-26T12:44:03.247Z,11.33
2019-04-26T12:45:37.991Z,11.57
2019-04-26T12:47:13.018Z,12.03
2019-04-26T12:48:28.991Z,13.32
2019-04-26T12:49:44.890Z,9.48
2019-04-26T12:51:01.493Z,9.20
2019-04-26T12:52:21.486Z,8.63
2019-04-26T12:53:35.533Z,7.60
2019-04-26T12:54:51.696Z,9.75
2019-04-26T12:56:07.622Z,15.58
2019-04-26T12:57:23.645Z,13.22
2019-04-26T12:58:39.550Z,15.30
2019-04-26T12:59:57.477Z,15.25
2019-04-26T13:01:13.952Z,16.42
2019-04-26T13:02:30.512Z,14.07
2019-04-26T13:04:03.807Z,14.75
2019-04-26T13:05:20.601Z,10.13
2019-04-26T13:06:41.084Z,9.38
2019-04-26T13:07:57.502Z,12.73
2019-04-26T13:09:13.587Z,11.48
2019-04-26T13:10:54.124Z,15.18
2019-04-26T13:14:16.056Z,12.55
2019-04-26T13:17:07.025Z,11.65
2019-04-26T13:18:23.169Z,11.15
2019-04-26T13:19:39.238Z,10.72
2019-04-26T13:20:58.620Z,8.88
2019-04-26T13:22:13.571Z,10.68
2019-04-26T13:23:29.833Z,9.43
2019-04-26T13:24:47.430Z,9.35
2019-04-26T13:26:03.263Z,10.45
2019-04-26T13:27:19.595Z,10.85
2019-04-26T13:28:35.938Z,11.55
2019-04-26T13:30:01.456Z,9.28
2019-04-26T13:31:09.497Z,9.15
2019-04-26T13:32:25.458Z,9.08
2019-04-26T13:33:41.637Z,9.90
2019-04-26T13:34:57.476Z,9.83
2019-04-26T13:36:13.371Z,9.40
2019-04-26T13:37:32.227Z,9.93
2019-04-26T13:38:47.462Z,9.03
2019-04-26T13:40:04.038Z,9.60
2019-04-26T13:41:20.159Z,11.25
2019-04-26T13:42:36.290Z,10.95
2019-04-26T13:43:52.394Z,10.23
2019-04-26T13:48:43.410Z,12.63
2019-04-26T13:51:46.842Z,11.78
2019-04-26T13:53:02.965Z,10.82
2019-04-26T13:54:20.974Z,12.75
2019-04-26T13:55:37.398Z,11.28
2019-04-26T13:56:53.686Z,10.80
2019-04-26T13:58:09.392Z,11.60
2019-04-26T13:59:28.091Z,11.65
2019-04-26T14:00:44.948Z,12.33
2019-04-26T14:02:10.865Z,13.00
2019-04-26T14:03:18.508Z,12.82
2019-04-26T14:04:37.148Z,12.00
2019-04-26T14:05:52.355Z,11.53
2019-04-26T14:07:08.341Z,13.80
2019-04-26T14:08:24.646Z,12.65
2019-04-26T14:09:40.775Z,14.40
2019-04-26T14:10:56.684Z,13.48
2019-04-26T14:12:18.729Z,12.75
2019-04-26T14:13:30.245Z,14.20
2019-04-26T14:14:46.642Z,13.30
2019-04-26T14:16:02.442Z,13.00
2019-04-26T14:17:18.403Z,14.93
2019-04-26T14:18:38.702Z,11.83
2019-04-26T14:19:52.361Z,13.43
2019-04-26T14:21:08.738Z,11.03
2019-04-26T14:22:29.560Z,10.23
2019-04-26T14:27:25.279Z,10.05
2019-04-26T14:30:19.001Z,9.23
2019-04-26T14:31:42.565Z,7.83
2019-04-26T14:34:50.038Z,10.15
2019-04-26T14:37:45.481Z,8.45
2019-04-26T14:41:13.288Z,8.45
2019-04-26T14:42:42.267Z,8.05
2019-04-26T14:47:30.434Z,8.50
2019-04-26T14:53:45.958Z,7.00
2019-04-26T15:02:06.429Z,6.70
2019-04-26T15:03:47.258Z,4.87
2019-04-26T15:05:29.771Z,6.47
2019-04-26T15:06:57.912Z,6.30
2019-04-26T15:08:18.462Z,4.85
2019-04-26T15:11:24.412Z,5.25
2019-04-26T15:12:46.212Z,5.95
2019-04-26T15:13:58.345Z,5.28
2019-04-26T15:15:14.674Z,5.12
2019-04-26T15:16:32.735Z,4.40
2019-04-26T15:17:48.989Z,4.42
2019-04-26T15:19:06.313Z,7.42
2019-04-26T15:20:24.327Z,5.37
2019-04-26T15:21:42.125Z,5.00
2019-04-26T15:22:58.519Z,7.30
2019-04-26T15:24:14.417Z,5.75
2019-04-26T15:25:31.811Z,4.83
2019-04-26T15:26:48.557Z,5.17
2019-04-26T15:28:06.788Z,5.30
2019-04-26T15:29:26.830Z,5.40
2019-04-26T15:30:46.379Z,5.60
2019-04-26T15:31:58.968Z,5.20
2019-04-26T15:33:14.985Z,5.22
2019-04-26T15:34:31.318Z,5.00
2019-04-26T15:35:48.179Z,4.97
2019-04-26T15:37:04.704Z,4.22
2019-04-26T15:38:21.225Z,4.20
2019-04-26T15:43:24.049Z,4.20
2019-04-26T15:45:03.313Z,4.70
2019-04-26T15:46:24.611Z,4.25
2019-04-26T15:47:59.296Z,5.78
2019-04-26T15:51:02.734Z,4.60
2019-04-26T15:52:19.094Z,4.30
2019-04-26T15:53:34.976Z,4.83
2019-04-26T15:54:52.901Z,5.83
2019-04-26T15:56:10.161Z,5.28
2019-04-26T15:57:31.288Z,6.92
2019-04-26T15:58:47.885Z,4.90
2019-04-26T16:00:04.009Z,4.85
2019-04-26T16:01:19.968Z,3.62
2019-04-26T16:02:36.028Z,6.33
2019-04-26T16:03:53.060Z,5.40
2019-04-26T16:05:09.504Z,4.60
2019-04-26T16:06:25.496Z,4.40
2019-04-26T16:07:42.898Z,4.05
2019-04-26T16:08:59.432Z,4.55
2019-04-26T16:10:15.286Z,4.37
2019-04-26T16:11:31.241Z,3.52
2019-04-26T16:12:46.997Z,3.45
2019-04-26T16:14:02.903Z,5.75
2019-04-26T16:15:18.917Z,5.03
2019-04-26T16:16:34.835Z,4.85
2019-04-26T16:17:50.915Z,4.72
2019-04-26T16:19:06.778Z,4.33
2019-04-26T16:20:22.770Z,4.35
2019-04-26T16:21:38.748Z,4.37
2019-04-26T16:22:54.937Z,4.40
2019-04-26T16:24:12.821Z,6.05
2019-04-26T16:25:29.950Z,5.45
2019-04-26T16:26:50.792Z,5.62
2019-04-26T16:28:26.892Z,5.53
2019-04-26T16:31:53.146Z,4.05
2019-04-26T16:33:13.713Z,5.40
2019-04-26T16:34:32.304Z,7.85
2019-04-26T16:35:48.483Z,6.62
2019-04-26T16:37:05.376Z,5.40
2019-04-26T16:38:40.330Z,11.78
2019-04-26T16:39:56.442Z,4.35
2019-04-26T16:42:32.992Z,6.10
2019-04-26T16:43:53.045Z,6.42
2019-04-26T16:45:07.966Z,4.25
2019-04-26T16:46:24.790Z,4.45
2019-04-26T16:47:45.008Z,6.10
2019-04-26T16:49:02.359Z,4.72
2019-04-26T16:50:23.993Z,4.85
2019-04-26T16:51:35.152Z,6.03
2019-04-26T16:52:51.082Z,6.47
2019-04-26T16:54:10.794Z,5.62
2019-04-26T16:55:24.895Z,5.50
2019-04-26T16:56:43.912Z,4.12
2019-04-26T16:57:58.958Z,6.05
2019-04-26T16:59:22.860Z,5.37
2019-04-26T17:00:50.265Z,5.72
2019-04-26T17:01:50.221Z,5.53
2019-04-26T17:03:08.027Z,5.08
2019-04-26T17:04:29.012Z,7.55
2019-04-26T17:05:48.047Z,5.20
2019-04-26T17:07:02.883Z,4.28
2019-04-26T17:08:19.274Z,5.28
2019-04-26T17:09:54.405Z,5.40
2019-04-26T17:12:54.212Z,5.20
2019-04-26T17:14:10.127Z,4.37
2019-04-26T17:15:27.043Z,5.95
2019-04-26T17:16:44.459Z,5.25
2019-04-26T17:18:00.228Z,4.40
2019-04-26T17:19:16.441Z,6.87
2019-04-26T17:20:33.942Z,4.65
2019-04-26T17:23:55.202Z,4.97
2019-04-26T17:25:32.134Z,5.47
2019-04-26T17:28:26.254Z,4.58
2019-04-26T17:29:42.228Z,4.85
2019-04-26T17:30:58.784Z,7.33
2019-04-26T17:32:17.373Z,6.90
2019-04-26T17:33:32.757Z,4.55
2019-04-26T17:34:48.607Z,5.10
2019-04-26T17:36:04.509Z,5.65
2019-04-26T17:37:21.835Z,6.17
2019-04-26T17:38:40.012Z,6.40
2019-04-26T17:39:56.876Z,5.78
2019-04-26T17:41:13.836Z,6.35
2019-04-26T17:42:35.867Z,5.67
2019-04-26T17:43:52.036Z,5.22
2019-04-26T17:45:07.177Z,4.97
2019-04-26T17:46:23.535Z,5.78
2019-04-26T17:47:40.729Z,6.20
2019-04-26T17:48:57.956Z,5.72
2019-04-26T17:50:14.143Z,5.00
2019-04-26T17:51:35.232Z,4.53
2019-04-26T17:52:48.475Z,4.75
2019-04-26T17:54:21.163Z,5.00
2019-04-26T17:55:22.580Z,4.90
2019-04-26T17:56:40.196Z,5.20
2019-04-26T17:58:09.405Z,4.17
2019-04-26T17:59:31.402Z,7.12
2019-04-26T18:00:45.545Z,5.85
2019-04-26T18:02:00.136Z,5.92
2019-04-26T18:03:13.209Z,5.67
2019-04-26T18:04:34.432Z,6.00
2019-04-26T18:05:56.724Z,6.20
2019-04-26T18:07:17.958Z,5.03
2019-04-26T18:08:35.959Z,6.80
2019-04-26T18:09:44.678Z,4.50
2019-04-26T18:10:57.842Z,4.97
2019-04-26T18:12:13.915Z,4.58
2019-04-26T18:13:31.947Z,6.20
2019-04-26T18:14:47.688Z,6.53
2019-04-26T18:16:03.878Z,5.12
2019-04-26T18:17:41.515Z,7.33
2019-04-26T18:19:31.425Z,4.33
2019-04-26T18:20:56.080Z,5.72
2019-04-26T18:22:34.599Z,7.62
2019-04-26T18:23:54.594Z,6.08
2019-04-26T18:25:10.784Z,7.65
2019-04-26T18:26:25.593Z,5.97
2019-04-26T18:27:43.517Z,4.92
2019-04-26T18:28:59.665Z,5.58
2019-04-26T18:30:15.666Z,6.95
2019-04-26T18:31:33.518Z,7.42
2019-04-26T18:32:49.395Z,7.72
2019-04-26T18:34:05.949Z,10.18
2019-04-26T18:35:23.318Z,7.58
2019-04-26T18:36:39.096Z,7.83
2019-04-26T18:37:55.318Z,7.37
2019-04-26T18:39:11.484Z,5.42
2019-04-26T18:40:27.671Z,5.42
2019-04-26T18:41:43.403Z,7.40
2019-04-26T18:42:59.497Z,4.95
2019-04-26T18:44:15.411Z,4.35
2019-04-26T18:45:34.101Z,3.42
2019-04-26T18:47:26.309Z,3.12
2019-04-26T18:48:35.265Z,6.95
2019-04-26T18:49:52.097Z,2.15
2019-04-26T18:51:07.622Z,3.30
2019-04-26T18:52:26.274Z,6.03
2019-04-26T18:54:00.916Z,8.90
2019-04-26T18:57:05.294Z,4.47
2019-04-26T18:58:21.628Z,3.12
2019-04-26T18:59:37.581Z,4.72
2019-04-26T19:00:57.342Z,3.75
2019-04-26T19:02:18.644Z,3.65
2019-04-26T19:03:35.242Z,3.80
2019-04-26T19:04:52.846Z,2.77
2019-04-26T19:06:09.173Z,5.45
2019-04-26T19:07:32.012Z,5.60
2019-04-26T19:08:47.605Z,4.45
2019-04-26T19:10:04.902Z,3.75
2019-04-26T19:11:19.410Z,4.10
2019-04-26T19:12:35.162Z,2.27
2019-04-26T19:14:15.064Z,4.33
2019-04-26T19:17:07.686Z,3.25
2019-04-26T19:20:40.911Z,7.12
2019-04-26T19:22:01.520Z,4.85
2019-04-26T19:23:17.943Z,3.65
2019-04-26T19:24:33.865Z,2.72
2019-04-26T19:25:51.995Z,5.42
2019-04-26T19:27:08.615Z,3.87
2019-04-26T19:28:24.511Z,4.65
2019-04-26T19:29:41.121Z,2.85
2019-04-26T19:30:58.724Z,2.25
2019-04-26T19:32:15.479Z,2.90
2019-04-26T19:33:31.435Z,2.83
2019-04-26T19:34:47.336Z,4.17
2019-04-26T19:36:03.453Z,4.20
2019-04-26T19:37:23.033Z,2.83
2019-04-26T19:38:38.436Z,2.42
2019-04-26T19:39:55.423Z,2.45
2019-04-26T19:41:11.968Z,3.55
2019-04-26T19:42:30.961Z,2.60
2019-04-26T19:43:46.445Z,4.03
2019-04-26T19:45:13.654Z,2.30
2019-04-26T19:48:19.186Z,4.53
2019-04-26T19:49:54.079Z,2.27
2019-04-26T19:56:06.629Z,5.15
2019-04-26T19:59:07.854Z,4.87
2019-04-26T20:00:23.615Z,2.85
2019-04-26T20:01:39.670Z,3.05
2019-04-26T20:02:56.027Z,2.30
2019-04-26T20:04:13.574Z,3.90
2019-04-26T20:05:29.729Z,3.15
2019-04-26T20:06:48.462Z,4.72
2019-04-26T20:08:06.024Z,2.85
2019-04-26T20:09:26.089Z,2.25
2019-04-26T20:10:40.606Z,2.80
2019-04-26T20:11:59.285Z,3.08
2019-04-26T20:13:16.599Z,2.65
2019-04-26T20:14:45.063Z,2.17
2019-04-26T20:15:53.056Z,2.42
2019-04-26T20:17:13.141Z,2.75
2019-04-26T20:18:27.938Z,3.40
2019-04-26T20:19:47.833Z,3.45
2019-04-26T20:21:02.623Z,2.50
2019-04-26T20:22:22.137Z,2.80
2019-04-26T20:23:43.663Z,3.75
2019-04-26T20:24:57.587Z,5.25
2019-04-26T20:26:13.856Z,3.98
2019-04-26T20:27:29.819Z,4.05
2019-04-26T20:28:45.989Z,3.67
2019-04-26T20:30:02.486Z,4.65
2019-04-26T20:33:01.794Z,2.92
2019-04-26T20:34:18.396Z,3.33
2019-04-26T20:35:35.198Z,3.25
2019-04-26T20:36:52.162Z,2.70
2019-04-26T20:38:08.444Z,3.67
2019-04-26T20:39:24.811Z,3.25
2019-04-26T20:40:43.407Z,2.00
2019-04-26T20:42:03.264Z,7.03
2019-04-26T20:43:24.345Z,3.50
2019-04-26T20:44:50.771Z,3.58
2019-04-26T20:46:11.011Z,3.27
2019-04-26T20:47:17.274Z,3.90
2019-04-26T20:48:33.076Z,2.00
2019-04-26T20:49:59.727Z,2.85
2019-04-26T20:51:11.054Z,2.67
2019-04-26T20:52:25.123Z,2.40
2019-04-26T20:53:43.473Z,2.65
2019-04-26T20:54:58.737Z,2.98
2019-04-26T20:56:18.410Z,3.87
2019-04-26T21:02:16.192Z,5.80
2019-04-26T21:03:33.881Z,4.10
2019-04-26T21:04:51.385Z,3.85
2019-04-26T21:06:07.654Z,4.42
2019-04-26T21:07:23.713Z,2.75
2019-04-26T21:08:39.826Z,3.10
2019-04-26T21:09:55.693Z,5.90
2019-04-26T21:11:13.732Z,2.62
2019-04-26T21:12:31.350Z,4.08
2019-04-26T21:13:47.731Z,2.47
2019-04-26T21:15:03.581Z,2.35
2019-04-26T21:16:19.778Z,2.37
2019-04-26T21:17:35.821Z,2.62
2019-04-26T21:18:52.449Z,3.95
2019-04-26T21:20:08.221Z,2.70
2019-04-26T21:21:24.033Z,2.10
2019-04-26T21:22:41.936Z,8.08
2019-04-26T21:24:01.488Z,8.30
2019-04-26T21:28:38.066Z,8.65
2019-04-26T21:33:40.941Z,9.95
2019-04-26T21:37:11.369Z,12.00
2019-04-26T21:38:53.347Z,10.68
2019-04-26T21:40:35.826Z,12.60
2019-04-26T21:43:43.932Z,11.17
2019-04-26T21:45:09.066Z,11.30
2019-04-26T21:54:25.208Z,13.77
2019-04-26T21:55:49.598Z,15.37
2019-04-26T21:58:57.270Z,14.47
2019-04-26T22:00:40.323Z,17.53
2019-04-26T22:02:03.840Z,16.27
2019-04-26T22:03:27.315Z,16.10
2019-04-26T22:09:58.366Z,18.27
2019-04-26T22:12:56.523Z,16.73
2019-04-26T22:16:34.283Z,16.13
2019-04-26T22:19:57.274Z,19.90
2019-04-26T22:23:29.601Z,10.73
2019-04-26T22:31:13.374Z,19.33
2019-04-26T22:32:37.616Z,19.77
2019-04-26T22:34:01.382Z,17.53
2019-04-26T22:35:26.287Z,18.50
2019-04-26T22:36:49.870Z,18.97
2019-04-26T22:41:28.539Z,16.40
2019-04-26T22:46:28.732Z,8.50
2019-04-26T22:49:41.690Z,4.40
2019-04-26T22:52:51.579Z,9.13
2019-04-26T22:55:57.770Z,7.30
2019-04-26T23:06:23.629Z,10.30
2019-04-26T23:11:13.715Z,7.87
2019-04-26T23:12:58.012Z,11.83
2019-04-26T23:14:40.255Z,11.15
2019-04-26T23:16:23.366Z,13.25
2019-04-26T23:18:08.229Z,13.30
2019-04-26T23:19:54.257Z,15.35
2019-04-26T23:29:03.762Z,13.60
2019-04-26T23:30:19.663Z,13.80
2019-04-26T23:31:37.440Z,13.30
2019-04-26T23:32:53.343Z,15.25
2019-04-26T23:34:09.327Z,12.88
2019-04-26T23:35:25.360Z,7.55
2019-04-26T23:36:41.500Z,14.03
2019-04-26T23:38:00.977Z,13.32
2019-04-26T23:39:15.450Z,6.33
2019-04-26T23:40:31.465Z,8.27
2019-04-26T23:41:47.343Z,15.18
2019-04-26T23:43:03.542Z,15.15
2019-04-26T23:44:19.809Z,6.62
2019-04-26T23:45:35.783Z,15.50
2019-04-26T23:46:54.868Z,5.73
2019-04-26T23:48:12.157Z,10.95
2019-04-26T23:49:28.943Z,11.97
2019-04-26T23:50:44.950Z,6.67
2019-04-26T23:52:00.849Z,5.08
2019-04-26T23:53:20.196Z,11.18
2019-04-26T23:54:35.970Z,13.17
2019-04-26T23:55:51.877Z,11.27
2019-04-26T23:57:07.833Z,6.60
2019-04-26T23:58:23.883Z,5.37
2019-04-26T23:59:39.794Z,6.72
